createdAt,value
2018-11-10T00:02:40.373Z,38.57
2018-11-10T00:05:46.209Z,38.97
2018-11-10T00:08:51.646Z,36.93
2018-11-10T00:11:58.565Z,39.40
2018-11-10T00:15:04.561Z,39.60
2018-11-10T00:18:10.105Z,38.60
2018-11-10T00:21:15.605Z,39.07
2018-11-10T00:24:21.168Z,38.07
2018-11-10T00:27:26.717Z,38.27
2018-11-10T00:30:32.310Z,38.77
2018-11-10T00:33:38.009Z,37.10
2018-11-10T00:36:44.022Z,39.03
2018-11-10T00:39:49.708Z,37.17
2018-11-10T00:42:55.490Z,38.27
2018-11-10T00:46:01.626Z,37.03
2018-11-10T00:49:07.354Z,38.13
2018-11-10T00:52:13.226Z,37.53
2018-11-10T00:55:18.743Z,36.63
2018-11-10T00:58:24.173Z,37.10
2018-11-10T01:01:30.581Z,36.90
2018-11-10T01:04:36.135Z,37.40
2018-11-10T01:07:42.012Z,35.60
2018-11-10T01:10:47.661Z,35.00
2018-11-10T01:13:53.222Z,36.87
2018-11-10T01:16:58.620Z,36.20
2018-11-10T01:20:04.138Z,35.07
2018-11-10T01:23:10.092Z,36.53
2018-11-10T01:26:15.558Z,37.27
2018-11-10T01:29:21.006Z,36.07
2018-11-10T01:32:26.403Z,35.10
2018-11-10T01:35:31.978Z,36.33
2018-11-10T01:38:37.424Z,36.33
2018-11-10T01:41:42.918Z,37.23
2018-11-10T01:44:48.357Z,36.87
2018-11-10T01:47:53.773Z,35.27
2018-11-10T01:50:59.210Z,34.17
2018-11-10T01:54:04.767Z,33.57
2018-11-10T01:57:10.161Z,32.87
2018-11-10T02:00:17.365Z,34.07
2018-11-10T02:03:22.818Z,33.60
2018-11-10T02:06:28.207Z,34.27
2018-11-10T02:09:33.618Z,33.03
2018-11-10T02:12:39.037Z,33.97
2018-11-10T02:15:44.475Z,31.43
2018-11-10T02:18:50.006Z,33.77
2018-11-10T02:21:55.481Z,33.53
2018-11-10T02:25:01.061Z,33.00
2018-11-10T02:28:06.694Z,34.73
2018-11-10T02:31:12.078Z,31.50
2018-11-10T02:34:17.570Z,33.80
2018-11-10T02:37:23.077Z,33.37
2018-11-10T02:40:28.597Z,33.53
2018-11-10T02:43:34.074Z,33.13
2018-11-10T02:46:39.485Z,34.73
2018-11-10T02:49:44.905Z,32.77
2018-11-10T02:52:50.364Z,33.70
2018-11-10T02:55:55.951Z,31.90
2018-11-10T02:59:01.398Z,33.37
2018-11-10T03:02:06.997Z,32.07
2018-11-10T03:05:12.587Z,30.13
2018-11-10T03:08:17.998Z,31.53
2018-11-10T03:11:23.515Z,30.57
2018-11-10T03:14:29.159Z,30.97
2018-11-10T03:17:34.645Z,30.97
2018-11-10T03:20:40.110Z,30.47
2018-11-10T03:23:45.582Z,30.13
2018-11-10T03:26:50.981Z,29.33
2018-11-10T03:29:56.459Z,28.93
2018-11-10T03:33:01.864Z,28.87
2018-11-10T03:36:07.476Z,29.97
2018-11-10T03:39:13.753Z,28.00
2018-11-10T03:42:19.227Z,27.43
2018-11-10T03:45:24.916Z,25.33
2018-11-10T03:48:30.373Z,27.20
2018-11-10T03:51:35.767Z,26.63
2018-11-10T03:54:41.202Z,26.60
2018-11-10T03:57:46.583Z,25.67
2018-11-10T04:00:52.123Z,26.83
2018-11-10T04:03:57.653Z,26.47
2018-11-10T04:07:03.094Z,25.77
2018-11-10T04:10:08.690Z,26.70
2018-11-10T04:13:14.093Z,26.70
2018-11-10T04:16:19.569Z,25.37
2018-11-10T04:19:25.034Z,26.67
2018-11-10T04:22:35.482Z,24.37
2018-11-10T04:25:41.639Z,25.07
2018-11-10T04:28:47.035Z,26.33
2018-11-10T04:31:52.409Z,25.77
2018-11-10T04:34:57.922Z,23.33
2018-11-10T04:38:03.425Z,24.27
2018-11-10T04:41:09.358Z,24.10
2018-11-10T04:44:14.835Z,24.50
2018-11-10T04:47:20.214Z,25.13
2018-11-10T04:50:25.610Z,25.20
2018-11-10T04:53:31.081Z,25.03
2018-11-10T04:56:36.505Z,24.40
2018-11-10T04:59:41.887Z,26.13
2018-11-10T05:02:47.261Z,23.83
2018-11-10T05:05:53.089Z,24.30
2018-11-10T05:08:59.038Z,24.53
2018-11-10T05:12:04.548Z,25.50
2018-11-10T05:15:11.564Z,24.40
2018-11-10T05:18:16.920Z,24.00
2018-11-10T05:21:22.469Z,23.77
2018-11-10T05:24:28.399Z,24.97
2018-11-10T05:27:33.984Z,23.13
2018-11-10T05:30:39.442Z,22.90
2018-11-10T05:33:45.391Z,22.53
2018-11-10T05:36:50.934Z,22.37
2018-11-10T05:39:56.537Z,24.30
2018-11-10T05:43:01.973Z,23.03
2018-11-10T05:46:07.737Z,22.70
2018-11-10T05:49:13.197Z,24.03
2018-11-10T05:52:18.569Z,23.30
2018-11-10T05:55:24.022Z,23.30
2018-11-10T05:58:29.390Z,23.00
2018-11-10T06:01:34.825Z,23.63
2018-11-10T06:04:40.241Z,22.40
2018-11-10T06:07:45.687Z,22.77
2018-11-10T06:10:51.049Z,24.87
2018-11-10T06:13:56.515Z,22.87
2018-11-10T06:17:01.906Z,23.00
2018-11-10T06:20:09.342Z,24.83
2018-11-10T06:23:14.753Z,22.43
2018-11-10T06:26:20.126Z,23.20
2018-11-10T06:29:25.698Z,24.37
2018-11-10T06:32:31.203Z,23.67
2018-11-10T06:35:36.799Z,24.27
2018-11-10T06:38:42.218Z,24.50
2018-11-10T06:41:47.582Z,24.63
2018-11-10T06:44:53.052Z,23.83
2018-11-10T06:47:58.456Z,23.20
2018-11-10T06:51:03.831Z,24.03
2018-11-10T06:54:09.335Z,24.03
2018-11-10T06:57:14.766Z,25.07
2018-11-10T07:00:20.178Z,25.97
2018-11-10T07:03:25.662Z,25.03
2018-11-10T07:06:31.210Z,24.47
2018-11-10T07:09:36.629Z,23.83
2018-11-10T07:12:42.186Z,23.07
2018-11-10T07:15:47.628Z,23.07
2018-11-10T07:18:53.019Z,23.20
2018-11-10T07:21:58.369Z,21.57
2018-11-10T07:25:04.265Z,22.60
2018-11-10T07:28:09.743Z,22.43
2018-11-10T07:31:15.665Z,22.60
2018-11-10T07:34:21.269Z,21.67
2018-11-10T07:37:26.677Z,22.23
2018-11-10T07:40:32.207Z,22.23
2018-11-10T07:43:37.669Z,21.73
2018-11-10T07:46:43.042Z,19.83
2018-11-10T07:49:48.454Z,20.57
2018-11-10T07:52:53.809Z,20.03
2018-11-10T07:55:59.382Z,19.83
2018-11-10T07:59:05.146Z,19.67
2018-11-10T08:02:10.559Z,19.40
2018-11-10T08:05:16.554Z,19.00
2018-11-10T08:08:22.205Z,19.40
2018-11-10T08:11:27.594Z,18.63
2018-11-10T08:14:33.008Z,19.03
2018-11-10T08:17:38.544Z,19.40
2018-11-10T08:20:43.934Z,17.50
2018-11-10T08:23:49.574Z,21.27
2018-11-10T08:26:57.087Z,18.77
2018-11-10T08:30:02.571Z,17.07
2018-11-10T08:33:08.813Z,17.60
2018-11-10T08:36:14.233Z,17.40
2018-11-10T08:39:19.709Z,16.17
2018-11-10T08:42:25.289Z,17.13
2018-11-10T08:45:30.777Z,15.70
2018-11-10T08:48:36.194Z,16.77
2018-11-10T08:51:41.635Z,15.30
2018-11-10T08:54:47.366Z,15.57
2018-11-10T08:57:52.774Z,16.07
2018-11-10T09:00:58.222Z,15.73
2018-11-10T09:04:03.663Z,15.20
2018-11-10T09:07:09.706Z,16.20
2018-11-10T09:10:15.478Z,14.40
2018-11-10T09:13:20.974Z,15.07
2018-11-10T09:16:28.334Z,15.37
2018-11-10T09:19:34.139Z,16.27
2018-11-10T09:22:39.546Z,15.17
2018-11-10T09:25:45.077Z,15.60
2018-11-10T09:28:50.664Z,15.37
2018-11-10T09:31:56.205Z,15.87
2018-11-10T09:35:02.223Z,16.30
2018-11-10T09:38:08.661Z,16.13
2018-11-10T09:41:16.562Z,16.83
2018-11-10T09:44:22.535Z,15.63
2018-11-10T09:47:28.122Z,15.93
2018-11-10T09:50:33.648Z,14.83
2018-11-10T09:53:39.348Z,15.70
2018-11-10T09:56:46.616Z,15.77
2018-11-10T09:59:55.003Z,17.10
2018-11-10T10:03:00.488Z,15.40
2018-11-10T10:06:06.266Z,15.50
2018-11-10T10:09:12.418Z,14.53
2018-11-10T10:12:18.012Z,14.37
2018-11-10T10:15:23.699Z,14.57
2018-11-10T10:18:29.361Z,14.23
2018-11-10T10:21:35.143Z,13.73
2018-11-10T10:24:41.034Z,13.63
2018-11-10T10:27:48.103Z,13.07
2018-11-10T10:30:53.809Z,12.87
2018-11-10T10:33:59.664Z,12.33
2018-11-10T10:37:05.595Z,12.70
2018-11-10T10:40:12.873Z,12.53
2018-11-10T10:43:18.894Z,12.30
2018-11-10T10:46:24.529Z,11.30
2018-11-10T10:49:29.999Z,10.50
2018-11-10T10:52:35.526Z,10.73
2018-11-10T10:55:41.087Z,10.00
2018-11-10T10:58:46.532Z,9.97
2018-11-10T11:02:57.817Z,9.60
2018-11-10T11:06:03.575Z,8.87
2018-11-10T11:09:09.935Z,8.10
2018-11-10T11:12:15.726Z,7.93
2018-11-10T11:15:22.080Z,7.77
2018-11-10T11:18:27.790Z,7.30
2018-11-10T11:21:33.225Z,8.23
2018-11-10T11:24:39.004Z,7.27
2018-11-10T11:27:44.604Z,7.67
2018-11-10T11:30:50.254Z,7.57
2018-11-10T11:33:55.891Z,7.30
2018-11-10T11:37:01.458Z,6.63
2018-11-10T11:40:09.551Z,6.60
2018-11-10T11:43:15.165Z,6.93
2018-11-10T11:46:20.670Z,6.63
2018-11-10T11:49:26.445Z,5.90
2018-11-10T11:52:44.314Z,6.20
2018-11-10T11:55:50.411Z,5.90
2018-11-10T11:58:58.300Z,5.93
2018-11-10T12:02:04.137Z,5.70
2018-11-10T12:05:11.961Z,5.43
2018-11-10T12:08:17.499Z,5.90
2018-11-10T12:11:23.787Z,5.70
2018-11-10T12:14:29.486Z,5.97
2018-11-10T12:17:35.227Z,5.80
2018-11-10T12:20:40.754Z,9.90
2018-11-10T12:23:46.549Z,7.13
2018-11-10T12:26:52.121Z,6.13
2018-11-10T12:29:57.777Z,5.60
2018-11-10T12:33:03.198Z,5.73
2018-11-10T12:36:08.857Z,5.63
2018-11-10T12:39:14.476Z,6.37
2018-11-10T12:42:20.014Z,6.87
2018-11-10T12:45:25.680Z,6.97
2018-11-10T12:48:31.151Z,6.80
2018-11-10T12:51:36.710Z,5.77
2018-11-10T12:54:42.408Z,6.70
2018-11-10T12:57:48.250Z,6.80
2018-11-10T13:00:54.129Z,5.60
2018-11-10T13:04:00.040Z,6.13
2018-11-10T13:07:05.757Z,6.67
2018-11-10T13:10:12.018Z,6.20
2018-11-10T13:13:17.627Z,6.53
2018-11-10T13:16:23.183Z,6.87
2018-11-10T13:19:28.794Z,5.90
2018-11-10T13:22:34.281Z,7.37
2018-11-10T13:25:39.726Z,7.27
2018-11-10T13:28:45.290Z,7.30
2018-11-10T13:31:50.810Z,7.40
2018-11-10T13:34:56.530Z,7.03
2018-11-10T13:38:02.185Z,6.37
2018-11-10T13:41:07.794Z,6.40
2018-11-10T13:44:13.406Z,6.23
2018-11-10T13:47:18.959Z,7.63
2018-11-10T13:50:24.381Z,6.83
2018-11-10T13:53:29.798Z,7.17
2018-11-10T13:56:35.208Z,6.87
2018-11-10T13:59:40.737Z,7.37
2018-11-10T14:02:46.150Z,7.23
2018-11-10T14:05:51.610Z,6.70
2018-11-10T14:08:57.605Z,7.07
2018-11-10T14:12:03.381Z,7.10
2018-11-10T14:15:09.446Z,7.40
2018-11-10T14:18:14.982Z,6.87
2018-11-10T14:21:20.378Z,7.73
2018-11-10T14:24:25.858Z,8.77
2018-11-10T14:27:31.359Z,8.63
2018-11-10T14:30:36.734Z,9.20
2018-11-10T14:33:42.211Z,8.70
2018-11-10T14:36:47.594Z,9.13
2018-11-10T14:39:52.978Z,8.67
2018-11-10T14:42:58.374Z,9.10
2018-11-10T14:46:03.891Z,8.20
2018-11-10T14:49:09.337Z,8.70
2018-11-10T14:52:14.735Z,8.53
2018-11-10T14:55:20.266Z,8.83
2018-11-10T14:58:25.726Z,8.87
2018-11-10T15:01:32.706Z,8.07
2018-11-10T15:04:38.270Z,8.37
2018-11-10T15:07:44.314Z,7.90
2018-11-10T15:10:49.725Z,8.57
2018-11-10T15:13:55.362Z,8.30
2018-11-10T15:17:00.758Z,8.10
2018-11-10T15:20:07.714Z,7.40
2018-11-10T15:23:13.161Z,8.00
2018-11-10T15:26:18.558Z,8.03
2018-11-10T15:29:23.954Z,8.60
2018-11-10T15:32:29.310Z,9.10
2018-11-10T15:35:34.801Z,8.83
2018-11-10T15:38:40.402Z,9.53
2018-11-10T15:41:45.773Z,10.03
2018-11-10T15:44:51.303Z,10.73
2018-11-10T15:47:56.870Z,10.57
2018-11-10T15:51:02.314Z,10.90
2018-11-10T15:54:07.934Z,10.47
2018-11-10T15:57:13.473Z,11.93
2018-11-10T16:00:20.042Z,12.20
2018-11-10T16:03:25.949Z,10.93
2018-11-10T16:06:31.909Z,12.00
2018-11-10T16:09:37.544Z,11.90
2018-11-10T16:12:43.178Z,11.80
2018-11-10T16:15:48.850Z,12.57
2018-11-10T16:18:54.349Z,12.60
2018-11-10T16:22:01.503Z,12.50
2018-11-10T16:25:08.979Z,11.93
2018-11-10T16:28:14.446Z,12.53
2018-11-10T16:31:19.948Z,12.33
2018-11-10T16:34:25.502Z,11.63
2018-11-10T16:37:32.992Z,12.67
2018-11-10T16:40:38.467Z,11.67
2018-11-10T16:43:46.555Z,13.73
2018-11-10T16:46:52.046Z,12.63
2018-11-10T16:49:57.741Z,12.17
2018-11-10T16:53:03.590Z,16.35
2018-11-10T16:56:09.502Z,13.00
2018-11-10T16:59:16.565Z,12.70
2018-11-10T17:02:22.140Z,13.47
2018-11-10T17:05:27.702Z,13.03
2018-11-10T17:08:33.184Z,13.00
2018-11-10T17:11:39.218Z,13.60
2018-11-10T17:14:46.114Z,11.87
2018-11-10T17:20:54.165Z,13.60
2018-11-10T17:24:00.371Z,13.57
2018-11-10T17:27:06.685Z,13.80
2018-11-10T17:30:19.111Z,13.87
2018-11-10T17:33:25.715Z,14.90
2018-11-10T17:36:31.361Z,14.20
2018-11-10T17:39:36.947Z,15.53
2018-11-10T17:42:42.834Z,14.20
2018-11-10T17:45:48.650Z,15.13
2018-11-10T17:48:54.358Z,14.43
2018-11-10T17:51:59.929Z,15.97
2018-11-10T17:55:07.155Z,16.10
2018-11-10T17:58:16.680Z,14.97
2018-11-10T18:01:24.472Z,15.13
2018-11-10T18:04:30.192Z,15.50
2018-11-10T18:07:35.742Z,15.73
2018-11-10T18:10:41.257Z,15.03
2018-11-10T18:13:46.782Z,15.53
2018-11-10T18:16:52.427Z,16.00
2018-11-10T18:19:59.279Z,15.67
2018-11-10T18:23:07.533Z,14.27
2018-11-10T18:26:15.594Z,15.40
2018-11-10T18:29:21.344Z,15.30
2018-11-10T18:32:26.965Z,14.67
2018-11-10T18:35:35.197Z,16.27
2018-11-10T18:38:42.584Z,16.33
2018-11-10T18:41:48.333Z,17.73
2018-11-10T18:45:07.463Z,16.80
2018-11-10T18:48:15.038Z,16.17
2018-11-10T18:51:21.452Z,15.23
2018-11-10T18:54:26.990Z,16.20
2018-11-10T18:57:32.538Z,16.13
2018-11-10T19:00:37.974Z,16.43
2018-11-10T19:03:43.507Z,15.77
2018-11-10T19:06:49.253Z,16.47
2018-11-10T19:09:54.718Z,16.73
2018-11-10T19:13:00.269Z,15.63
2018-11-10T19:16:06.173Z,17.27
2018-11-10T19:19:11.625Z,15.03
2018-11-10T19:22:17.099Z,16.40
2018-11-10T19:25:22.562Z,15.47
2018-11-10T19:28:28.071Z,15.33
2018-11-10T19:31:33.539Z,14.90
2018-11-10T19:34:40.214Z,15.27
2018-11-10T19:37:46.226Z,14.77
2018-11-10T19:40:51.656Z,14.67
2018-11-10T19:43:57.094Z,15.10
2018-11-10T19:47:02.495Z,13.97
2018-11-10T19:50:08.352Z,13.40
2018-11-10T19:53:14.194Z,14.73
2018-11-10T19:56:19.632Z,13.87
2018-11-10T19:59:25.092Z,13.53
2018-11-10T20:02:30.485Z,13.50
2018-11-10T20:05:35.971Z,13.57
2018-11-10T20:08:41.672Z,12.63
2018-11-10T20:11:58.899Z,13.13
2018-11-10T20:15:06.319Z,12.63
2018-11-10T20:18:15.044Z,13.07
2018-11-10T20:21:21.581Z,11.63
2018-11-10T20:24:27.090Z,12.10
2018-11-10T20:27:32.610Z,11.37
2018-11-10T20:30:38.053Z,10.87
2018-11-10T20:33:43.582Z,11.83
2018-11-10T20:36:49.249Z,10.77
2018-11-10T20:39:54.675Z,10.57
2018-11-10T20:43:00.595Z,9.80
2018-11-10T20:46:07.027Z,10.80
2018-11-10T20:49:12.545Z,10.00
2018-11-10T20:52:17.940Z,9.47
2018-11-10T20:55:23.428Z,9.47
2018-11-10T20:58:28.848Z,8.73
2018-11-10T21:01:34.259Z,8.77
2018-11-10T21:04:40.118Z,8.07
2018-11-10T21:07:45.804Z,9.10
2018-11-10T21:10:51.203Z,8.23
2018-11-10T21:13:56.662Z,7.87
2018-11-10T21:17:02.075Z,7.67
2018-11-10T21:20:09.271Z,7.83
2018-11-10T21:23:14.902Z,7.83
2018-11-10T21:26:20.304Z,7.40
2018-11-10T21:29:25.751Z,7.67
2018-11-10T21:32:31.341Z,7.97
2018-11-10T21:35:36.994Z,7.53
2018-11-10T21:38:42.500Z,7.77
2018-11-10T21:41:47.946Z,7.60
2018-11-10T21:44:53.422Z,9.20
2018-11-10T21:47:58.766Z,7.83
2018-11-10T21:51:04.159Z,10.83
2018-11-10T21:54:09.702Z,8.10
2018-11-10T21:57:15.131Z,7.43
2018-11-10T22:00:21.878Z,7.50
2018-11-10T22:03:27.378Z,6.90
2018-11-10T22:06:32.958Z,6.63
2018-11-10T22:09:38.394Z,6.70
2018-11-10T22:12:44.617Z,6.77
2018-11-10T22:15:50.313Z,7.43
2018-11-10T22:18:55.878Z,6.60
2018-11-10T22:22:01.348Z,7.17
2018-11-10T22:25:08.995Z,6.40
2018-11-10T22:28:14.358Z,6.40
2018-11-10T22:31:19.868Z,6.70
2018-11-10T22:34:25.362Z,6.97
2018-11-10T22:37:30.810Z,6.90
2018-11-10T22:40:36.249Z,7.27
2018-11-10T22:43:41.954Z,7.00
2018-11-10T22:46:47.363Z,6.23
2018-11-10T22:49:53.065Z,7.00
2018-11-10T22:52:58.494Z,6.27
2018-11-10T22:56:03.998Z,6.00
2018-11-10T22:59:09.522Z,6.53
2018-11-10T23:02:14.925Z,6.30
2018-11-10T23:05:20.930Z,6.53
2018-11-10T23:08:26.285Z,6.30
2018-11-10T23:11:31.694Z,6.73
2018-11-10T23:14:37.181Z,6.83
2018-11-10T23:17:42.914Z,6.97
2018-11-10T23:20:48.285Z,6.57
2018-11-10T23:23:53.750Z,6.17
2018-11-10T23:26:59.108Z,6.20
2018-11-10T23:30:04.590Z,7.50
2018-11-10T23:33:09.974Z,7.83
2018-11-10T23:36:15.429Z,7.83
2018-11-10T23:39:20.802Z,8.57
2018-11-10T23:42:26.186Z,7.40
2018-11-10T23:45:31.669Z,7.93
2018-11-10T23:48:37.054Z,8.00
2018-11-10T23:51:42.394Z,8.07
2018-11-10T23:54:47.799Z,8.03
2018-11-10T23:57:53.186Z,7.70
